sensor_id;sensor_type;location;lat;lon;timestamp;P1;durP1;ratioP1;P2;durP2;ratioP2
21843;SDS011;11084;52.482;9.108;2022-12-20T00:01:16;8.27;;;4.30;;
21843;SDS011;11084;52.482;9.108;2022-12-20T00:03:50;8.17;;;4.90;;
21843;SDS011;11084;52.482;9.108;2022-12-20T00:06:19;7.67;;;4.27;;
21843;SDS011;11084;52.482;9.108;2022-12-20T00:08:52;8.10;;;4.53;;
21843;SDS011;11084;52.482;9.108;2022-12-20T00:11:20;11.70;;;4.07;;
21843;SDS011;11084;52.482;9.108;2022-12-20T00:13:47;10.73;;;4.57;;
21843;SDS011;11084;52.482;9.108;2022-12-20T00:16:15;10.37;;;4.87;;
21843;SDS011;11084;52.482;9.108;2022-12-20T00:18:44;8.63;;;4.20;;
21843;SDS011;11084;52.482;9.108;2022-12-20T00:21:12;10.43;;;4.93;;
21843;SDS011;11084;52.482;9.108;2022-12-20T00:23:39;9.07;;;4.43;;
21843;SDS011;11084;52.482;9.108;2022-12-20T00:26:13;13.13;;;4.60;;
21843;SDS011;11084;52.482;9.108;2022-12-20T00:28:42;8.47;;;4.40;;
21843;SDS011;11084;52.482;9.108;2022-12-20T00:31:11;9.83;;;5.17;;
21843;SDS011;11084;52.482;9.108;2022-12-20T00:33:40;10.50;;;4.43;;
21843;SDS011;11084;52.482;9.108;2022-12-20T00:36:09;10.10;;;4.73;;
21843;SDS011;11084;52.482;9.108;2022-12-20T00:38:36;7.57;;;4.63;;
21843;SDS011;11084;52.482;9.108;2022-12-20T00:41:07;10.40;;;5.00;;
21843;SDS011;11084;52.482;9.108;2022-12-20T00:43:36;9.97;;;4.57;;
21843;SDS011;11084;52.482;9.108;2022-12-20T00:46:03;11.93;;;4.90;;
21843;SDS011;11084;52.482;9.108;2022-12-20T00:48:32;11.87;;;5.50;;
21843;SDS011;11084;52.482;9.108;2022-12-20T00:50:59;8.97;;;5.10;;
21843;SDS011;11084;52.482;9.108;2022-12-20T00:53:30;9.00;;;4.97;;
21843;SDS011;11084;52.482;9.108;2022-12-20T00:55:57;12.67;;;5.07;;
21843;SDS011;11084;52.482;9.108;2022-12-20T00:58:24;9.60;;;4.70;;
21843;SDS011;11084;52.482;9.108;2022-12-20T01:00:53;8.37;;;4.67;;
21843;SDS011;11084;52.482;9.108;2022-12-20T01:03:19;9.73;;;5.07;;
21843;SDS011;11084;52.482;9.108;2022-12-20T01:05:53;14.93;;;5.50;;
21843;SDS011;11084;52.482;9.108;2022-12-20T01:08:25;9.60;;;4.50;;
21843;SDS011;11084;52.482;9.108;2022-12-20T01:11:07;12.97;;;4.60;;
21843;SDS011;11084;52.482;9.108;2022-12-20T01:13:37;11.47;;;5.27;;
21843;SDS011;11084;52.482;9.108;2022-12-20T01:16:06;10.50;;;5.27;;
21843;SDS011;11084;52.482;9.108;2022-12-20T01:18:44;12.97;;;4.57;;
21843;SDS011;11084;52.482;9.108;2022-12-20T01:21:11;9.40;;;4.93;;
21843;SDS011;11084;52.482;9.108;2022-12-20T01:23:39;12.13;;;4.67;;
21843;SDS011;11084;52.482;9.108;2022-12-20T01:26:07;8.50;;;4.10;;
21843;SDS011;11084;52.482;9.108;2022-12-20T01:28:38;7.10;;;4.17;;
21843;SDS011;11084;52.482;9.108;2022-12-20T01:31:07;8.10;;;4.20;;
21843;SDS011;11084;52.482;9.108;2022-12-20T01:33:39;15.23;;;4.57;;
21843;SDS011;11084;52.482;9.108;2022-12-20T01:36:06;6.57;;;3.83;;
21843;SDS011;11084;52.482;9.108;2022-12-20T01:38:36;7.60;;;3.83;;
21843;SDS011;11084;52.482;9.108;2022-12-20T01:41:02;9.87;;;4.50;;
21843;SDS011;11084;52.482;9.108;2022-12-20T01:46:23;8.67;;;4.30;;
21843;SDS011;11084;52.482;9.108;2022-12-20T01:51:51;8.40;;;4.60;;
21843;SDS011;11084;52.482;9.108;2022-12-20T01:57:07;7.07;;;3.50;;
21843;SDS011;11084;52.482;9.108;2022-12-20T01:59:41;6.47;;;3.80;;
21843;SDS011;11084;52.482;9.108;2022-12-20T02:02:10;7.70;;;4.23;;
21843;SDS011;11084;52.482;9.108;2022-12-20T02:04:38;7.57;;;4.30;;
21843;SDS011;11084;52.482;9.108;2022-12-20T02:07:04;10.03;;;3.97;;
21843;SDS011;11084;52.482;9.108;2022-12-20T02:09:33;9.43;;;3.90;;
21843;SDS011;11084;52.482;9.108;2022-12-20T02:32:41;7.93;;;4.00;;
21843;SDS011;11084;52.482;9.108;2022-12-20T02:35:31;8.30;;;4.03;;
21843;SDS011;11084;52.482;9.108;2022-12-20T02:38:03;6.13;;;3.57;;
21843;SDS011;11084;52.482;9.108;2022-12-20T02:41:02;7.30;;;3.50;;
21843;SDS011;11084;52.482;9.108;2022-12-20T02:43:56;6.03;;;3.43;;
21843;SDS011;11084;52.482;9.108;2022-12-20T02:46:50;11.50;;;3.67;;
21843;SDS011;11084;52.482;9.108;2022-12-20T02:49:21;7.00;;;3.47;;
21843;SDS011;11084;52.482;9.108;2022-12-20T02:51:51;5.67;;;3.73;;
21843;SDS011;11084;52.482;9.108;2022-12-20T02:54:20;8.73;;;3.47;;
21843;SDS011;11084;52.482;9.108;2022-12-20T02:56:57;7.07;;;3.70;;
21843;SDS011;11084;52.482;9.108;2022-12-20T02:59:35;5.37;;;3.27;;
21843;SDS011;11084;52.482;9.108;2022-12-20T03:02:22;7.67;;;3.47;;
21843;SDS011;11084;52.482;9.108;2022-12-20T03:04:49;7.37;;;3.57;;
21843;SDS011;11084;52.482;9.108;2022-12-20T03:07:16;8.20;;;3.47;;
21843;SDS011;11084;52.482;9.108;2022-12-20T03:09:43;9.13;;;3.77;;
21843;SDS011;11084;52.482;9.108;2022-12-20T03:12:13;5.50;;;3.60;;
21843;SDS011;11084;52.482;9.108;2022-12-20T03:14:42;6.83;;;3.80;;
21843;SDS011;11084;52.482;9.108;2022-12-20T03:17:10;6.87;;;3.67;;
21843;SDS011;11084;52.482;9.108;2022-12-20T03:19:36;5.60;;;3.37;;
21843;SDS011;11084;52.482;9.108;2022-12-20T03:22:04;6.50;;;3.37;;
21843;SDS011;11084;52.482;9.108;2022-12-20T03:24:30;7.40;;;3.20;;
21843;SDS011;11084;52.482;9.108;2022-12-20T03:26:58;9.40;;;2.93;;
21843;SDS011;11084;52.482;9.108;2022-12-20T03:29:25;5.47;;;3.10;;
21843;SDS011;11084;52.482;9.108;2022-12-20T03:31:51;8.80;;;3.53;;
21843;SDS011;11084;52.482;9.108;2022-12-20T03:34:17;10.83;;;3.00;;
21843;SDS011;11084;52.482;9.108;2022-12-20T03:36:43;6.40;;;3.13;;
21843;SDS011;11084;52.482;9.108;2022-12-20T03:39:10;6.10;;;3.17;;
21843;SDS011;11084;52.482;9.108;2022-12-20T03:41:39;7.53;;;3.27;;
21843;SDS011;11084;52.482;9.108;2022-12-20T03:44:06;6.10;;;3.73;;
21843;SDS011;11084;52.482;9.108;2022-12-20T03:46:33;4.17;;;2.77;;
21843;SDS011;11084;52.482;9.108;2022-12-20T03:49:01;8.13;;;2.80;;
21843;SDS011;11084;52.482;9.108;2022-12-20T03:51:28;4.07;;;2.90;;
21843;SDS011;11084;52.482;9.108;2022-12-20T03:53:54;7.20;;;3.20;;
21843;SDS011;11084;52.482;9.108;2022-12-20T03:56:27;7.30;;;3.70;;
21843;SDS011;11084;52.482;9.108;2022-12-20T03:58:53;7.40;;;2.80;;
21843;SDS011;11084;52.482;9.108;2022-12-20T04:01:23;8.10;;;3.03;;
21843;SDS011;11084;52.482;9.108;2022-12-20T04:03:53;4.33;;;2.93;;
21843;SDS011;11084;52.482;9.108;2022-12-20T04:06:20;5.83;;;3.33;;
21843;SDS011;11084;52.482;9.108;2022-12-20T04:08:49;5.07;;;3.23;;
21843;SDS011;11084;52.482;9.108;2022-12-20T04:11:22;4.30;;;3.00;;
21843;SDS011;11084;52.482;9.108;2022-12-20T04:13:54;7.27;;;3.30;;
21843;SDS011;11084;52.482;9.108;2022-12-20T04:16:21;6.80;;;3.60;;
21843;SDS011;11084;52.482;9.108;2022-12-20T04:18:51;7.33;;;3.30;;
21843;SDS011;11084;52.482;9.108;2022-12-20T04:21:27;5.63;;;3.20;;
21843;SDS011;11084;52.482;9.108;2022-12-20T04:23:57;6.20;;;2.97;;
21843;SDS011;11084;52.482;9.108;2022-12-20T04:26:35;4.53;;;3.23;;
21843;SDS011;11084;52.482;9.108;2022-12-20T04:29:02;4.17;;;2.90;;
21843;SDS011;11084;52.482;9.108;2022-12-20T04:31:29;5.80;;;3.13;;
21843;SDS011;11084;52.482;9.108;2022-12-20T04:33:56;13.07;;;3.37;;
21843;SDS011;11084;52.482;9.108;2022-12-20T04:36:23;6.33;;;3.70;;
21843;SDS011;11084;52.482;9.108;2022-12-20T04:38:52;4.60;;;3.23;;
21843;SDS011;11084;52.482;9.108;2022-12-20T04:41:19;8.77;;;3.83;;
21843;SDS011;11084;52.482;9.108;2022-12-20T04:43:57;4.50;;;3.20;;
21843;SDS011;11084;52.482;9.108;2022-12-20T04:46:30;5.20;;;3.10;;
21843;SDS011;11084;52.482;9.108;2022-12-20T04:48:59;7.90;;;3.60;;
21843;SDS011;11084;52.482;9.108;2022-12-20T04:51:27;5.37;;;3.43;;
21843;SDS011;11084;52.482;9.108;2022-12-20T04:53:53;6.20;;;3.67;;
21843;SDS011;11084;52.482;9.108;2022-12-20T04:56:43;4.77;;;3.27;;
21843;SDS011;11084;52.482;9.108;2022-12-20T04:59:14;6.97;;;3.60;;
21843;SDS011;11084;52.482;9.108;2022-12-20T05:01:43;7.70;;;4.10;;
21843;SDS011;11084;52.482;9.108;2022-12-20T05:04:14;7.77;;;3.73;;
21843;SDS011;11084;52.482;9.108;2022-12-20T05:06:40;8.90;;;3.77;;
21843;SDS011;11084;52.482;9.108;2022-12-20T05:09:07;6.60;;;3.60;;
21843;SDS011;11084;52.482;9.108;2022-12-20T05:11:33;6.30;;;4.07;;
21843;SDS011;11084;52.482;9.108;2022-12-20T05:14:02;6.90;;;4.27;;
21843;SDS011;11084;52.482;9.108;2022-12-20T05:16:28;7.20;;;4.40;;
21843;SDS011;11084;52.482;9.108;2022-12-20T05:18:57;8.57;;;4.33;;
21843;SDS011;11084;52.482;9.108;2022-12-20T05:21:24;7.87;;;4.47;;
21843;SDS011;11084;52.482;9.108;2022-12-20T05:24:09;7.43;;;4.80;;
21843;SDS011;11084;52.482;9.108;2022-12-20T05:27:07;11.80;;;5.27;;
21843;SDS011;11084;52.482;9.108;2022-12-20T05:29:32;10.40;;;4.23;;
21843;SDS011;11084;52.482;9.108;2022-12-20T05:31:58;10.53;;;5.43;;
21843;SDS011;11084;52.482;9.108;2022-12-20T05:34:25;8.17;;;4.63;;
21843;SDS011;11084;52.482;9.108;2022-12-20T05:36:54;10.27;;;5.00;;
21843;SDS011;11084;52.482;9.108;2022-12-20T05:39:24;11.43;;;4.77;;
21843;SDS011;11084;52.482;9.108;2022-12-20T05:41:53;10.50;;;5.27;;
21843;SDS011;11084;52.482;9.108;2022-12-20T05:44:23;11.57;;;5.47;;
21843;SDS011;11084;52.482;9.108;2022-12-20T05:46:52;9.67;;;5.33;;
21843;SDS011;11084;52.482;9.108;2022-12-20T05:49:24;11.47;;;5.67;;
21843;SDS011;11084;52.482;9.108;2022-12-20T05:51:52;8.03;;;4.90;;
21843;SDS011;11084;52.482;9.108;2022-12-20T05:54:23;7.73;;;5.10;;
21843;SDS011;11084;52.482;9.108;2022-12-20T05:57:09;11.47;;;5.57;;
21843;SDS011;11084;52.482;9.108;2022-12-20T05:59:38;21.37;;;5.77;;
21843;SDS011;11084;52.482;9.108;2022-12-20T06:02:11;9.10;;;5.43;;
21843;SDS011;11084;52.482;9.108;2022-12-20T06:04:38;11.77;;;5.53;;
21843;SDS011;11084;52.482;9.108;2022-12-20T06:07:13;11.33;;;5.07;;
21843;SDS011;11084;52.482;9.108;2022-12-20T06:09:41;13.93;;;5.37;;
21843;SDS011;11084;52.482;9.108;2022-12-20T06:12:12;11.77;;;5.43;;
21843;SDS011;11084;52.482;9.108;2022-12-20T06:14:38;8.87;;;5.20;;
21843;SDS011;11084;52.482;9.108;2022-12-20T06:17:05;9.93;;;5.73;;
21843;SDS011;11084;52.482;9.108;2022-12-20T06:19:33;9.80;;;5.70;;
21843;SDS011;11084;52.482;9.108;2022-12-20T06:22:01;12.77;;;5.63;;
21843;SDS011;11084;52.482;9.108;2022-12-20T06:24:37;11.83;;;5.57;;
21843;SDS011;11084;52.482;9.108;2022-12-20T06:27:04;12.50;;;5.77;;
21843;SDS011;11084;52.482;9.108;2022-12-20T06:29:32;14.83;;;6.10;;
21843;SDS011;11084;52.482;9.108;2022-12-20T06:32:03;11.60;;;5.70;;
21843;SDS011;11084;52.482;9.108;2022-12-20T06:34:30;11.80;;;6.53;;
21843;SDS011;11084;52.482;9.108;2022-12-20T06:36:57;10.57;;;5.27;;
21843;SDS011;11084;52.482;9.108;2022-12-20T06:39:27;9.37;;;5.23;;
21843;SDS011;11084;52.482;9.108;2022-12-20T06:42:01;11.17;;;5.73;;
21843;SDS011;11084;52.482;9.108;2022-12-20T06:44:28;11.97;;;6.37;;
21843;SDS011;11084;52.482;9.108;2022-12-20T06:46:55;12.03;;;5.57;;
21843;SDS011;11084;52.482;9.108;2022-12-20T06:49:21;9.33;;;5.47;;
21843;SDS011;11084;52.482;9.108;2022-12-20T06:51:49;13.40;;;5.53;;
21843;SDS011;11084;52.482;9.108;2022-12-20T06:54:19;15.20;;;5.60;;
21843;SDS011;11084;52.482;9.108;2022-12-20T06:56:45;11.63;;;6.00;;
21843;SDS011;11084;52.482;9.108;2022-12-20T06:59:12;14.07;;;6.40;;
21843;SDS011;11084;52.482;9.108;2022-12-20T07:01:38;12.33;;;5.87;;
21843;SDS011;11084;52.482;9.108;2022-12-20T07:04:04;13.27;;;5.73;;
21843;SDS011;11084;52.482;9.108;2022-12-20T07:06:31;10.67;;;6.03;;
21843;SDS011;11084;52.482;9.108;2022-12-20T07:08:57;9.87;;;5.43;;
21843;SDS011;11084;52.482;9.108;2022-12-20T07:11:24;14.13;;;5.57;;
21843;SDS011;11084;52.482;9.108;2022-12-20T07:13:53;9.03;;;5.70;;
21843;SDS011;11084;52.482;9.108;2022-12-20T07:16:21;9.40;;;5.30;;
21843;SDS011;11084;52.482;9.108;2022-12-20T07:18:49;9.47;;;5.17;;
21843;SDS011;11084;52.482;9.108;2022-12-20T07:21:17;14.07;;;5.80;;
21843;SDS011;11084;52.482;9.108;2022-12-20T07:23:44;10.10;;;5.20;;
21843;SDS011;11084;52.482;9.108;2022-12-20T07:26:11;10.63;;;5.53;;
21843;SDS011;11084;52.482;9.108;2022-12-20T07:28:38;12.03;;;5.77;;
21843;SDS011;11084;52.482;9.108;2022-12-20T07:31:04;9.37;;;5.30;;
21843;SDS011;11084;52.482;9.108;2022-12-20T07:33:31;12.20;;;6.23;;
21843;SDS011;11084;52.482;9.108;2022-12-20T07:36:04;10.57;;;5.20;;
21843;SDS011;11084;52.482;9.108;2022-12-20T07:38:33;8.43;;;5.20;;
21843;SDS011;11084;52.482;9.108;2022-12-20T07:41:00;15.87;;;5.03;;
21843;SDS011;11084;52.482;9.108;2022-12-20T07:43:42;12.37;;;5.77;;
21843;SDS011;11084;52.482;9.108;2022-12-20T07:46:09;10.90;;;5.13;;
21843;SDS011;11084;52.482;9.108;2022-12-20T07:48:38;9.33;;;5.10;;
21843;SDS011;11084;52.482;9.108;2022-12-20T07:51:09;8.20;;;4.83;;
21843;SDS011;11084;52.482;9.108;2022-12-20T07:53:53;9.27;;;4.50;;
21843;SDS011;11084;52.482;9.108;2022-12-20T07:56:30;10.70;;;5.40;;
21843;SDS011;11084;52.482;9.108;2022-12-20T07:59:02;11.53;;;6.13;;
21843;SDS011;11084;52.482;9.108;2022-12-20T08:01:28;11.50;;;5.20;;
21843;SDS011;11084;52.482;9.108;2022-12-20T08:03:58;13.43;;;5.73;;
21843;SDS011;11084;52.482;9.108;2022-12-20T08:06:30;10.57;;;5.17;;
21843;SDS011;11084;52.482;9.108;2022-12-20T08:08:58;12.47;;;5.60;;
21843;SDS011;11084;52.482;9.108;2022-12-20T08:11:27;9.53;;;4.87;;
21843;SDS011;11084;52.482;9.108;2022-12-20T08:13:55;10.50;;;5.07;;
21843;SDS011;11084;52.482;9.108;2022-12-20T08:16:22;10.27;;;5.37;;
21843;SDS011;11084;52.482;9.108;2022-12-20T08:18:52;10.27;;;5.00;;
21843;SDS011;11084;52.482;9.108;2022-12-20T08:21:22;9.63;;;5.43;;
21843;SDS011;11084;52.482;9.108;2022-12-20T08:23:48;12.23;;;5.30;;
21843;SDS011;11084;52.482;9.108;2022-12-20T08:26:16;12.37;;;5.90;;
21843;SDS011;11084;52.482;9.108;2022-12-20T08:28:49;10.27;;;4.90;;
21843;SDS011;11084;52.482;9.108;2022-12-20T08:31:16;11.63;;;5.53;;
21843;SDS011;11084;52.482;9.108;2022-12-20T08:33:43;8.73;;;5.07;;
21843;SDS011;11084;52.482;9.108;2022-12-20T08:36:10;13.37;;;6.17;;
21843;SDS011;11084;52.482;9.108;2022-12-20T08:38:38;12.50;;;5.77;;
21843;SDS011;11084;52.482;9.108;2022-12-20T08:41:07;9.30;;;5.30;;
21843;SDS011;11084;52.482;9.108;2022-12-20T08:43:37;9.60;;;6.37;;
21843;SDS011;11084;52.482;9.108;2022-12-20T08:46:05;12.93;;;5.60;;
21843;SDS011;11084;52.482;9.108;2022-12-20T08:48:32;10.53;;;4.63;;
21843;SDS011;11084;52.482;9.108;2022-12-20T08:50:59;11.67;;;5.50;;
21843;SDS011;11084;52.482;9.108;2022-12-20T08:53:28;11.03;;;6.20;;
21843;SDS011;11084;52.482;9.108;2022-12-20T08:56:07;8.83;;;5.27;;
21843;SDS011;11084;52.482;9.108;2022-12-20T08:58:40;11.27;;;5.17;;
21843;SDS011;11084;52.482;9.108;2022-12-20T09:01:15;11.13;;;6.33;;
21843;SDS011;11084;52.482;9.108;2022-12-20T09:03:43;8.43;;;5.13;;
21843;SDS011;11084;52.482;9.108;2022-12-20T09:06:11;13.23;;;6.30;;
21843;SDS011;11084;52.482;9.108;2022-12-20T09:08:41;10.33;;;5.43;;
21843;SDS011;11084;52.482;9.108;2022-12-20T09:11:18;10.73;;;5.73;;
21843;SDS011;11084;52.482;9.108;2022-12-20T09:13:50;9.20;;;5.23;;
21843;SDS011;11084;52.482;9.108;2022-12-20T09:16:20;19.50;;;5.77;;
21843;SDS011;11084;52.482;9.108;2022-12-20T09:18:49;9.73;;;5.27;;
21843;SDS011;11084;52.482;9.108;2022-12-20T09:21:17;9.20;;;5.17;;
21843;SDS011;11084;52.482;9.108;2022-12-20T09:23:46;10.70;;;5.33;;
21843;SDS011;11084;52.482;9.108;2022-12-20T09:26:15;9.53;;;4.77;;
21843;SDS011;11084;52.482;9.108;2022-12-20T09:28:43;12.67;;;5.50;;
21843;SDS011;11084;52.482;9.108;2022-12-20T09:31:17;12.00;;;5.07;;
21843;SDS011;11084;52.482;9.108;2022-12-20T09:33:47;10.77;;;5.67;;
21843;SDS011;11084;52.482;9.108;2022-12-20T09:36:15;11.73;;;5.10;;
21843;SDS011;11084;52.482;9.108;2022-12-20T09:38:44;9.23;;;5.20;;
21843;SDS011;11084;52.482;9.108;2022-12-20T09:44:24;10.83;;;5.10;;
21843;SDS011;11084;52.482;9.108;2022-12-20T09:47:04;10.87;;;5.33;;
21843;SDS011;11084;52.482;9.108;2022-12-20T09:49:46;10.93;;;5.13;;
21843;SDS011;11084;52.482;9.108;2022-12-20T09:52:39;10.97;;;4.97;;
21843;SDS011;11084;52.482;9.108;2022-12-20T09:55:37;9.77;;;5.33;;
21843;SDS011;11084;52.482;9.108;2022-12-20T10:01:29;9.83;;;4.77;;
21843;SDS011;11084;52.482;9.108;2022-12-20T10:04:02;10.23;;;4.90;;
21843;SDS011;11084;52.482;9.108;2022-12-20T10:07:06;8.80;;;4.80;;
21843;SDS011;11084;52.482;9.108;2022-12-20T10:15:21;7.97;;;4.27;;
21843;SDS011;11084;52.482;9.108;2022-12-20T10:22:07;9.47;;;5.03;;
21843;SDS011;11084;52.482;9.108;2022-12-20T10:24:20;7.23;;;4.87;;
21843;SDS011;11084;52.482;9.108;2022-12-20T10:27:13;7.87;;;4.60;;
21843;SDS011;11084;52.482;9.108;2022-12-20T10:29:47;10.73;;;5.00;;
21843;SDS011;11084;52.482;9.108;2022-12-20T10:32:16;11.50;;;4.53;;
21843;SDS011;11084;52.482;9.108;2022-12-20T10:34:55;6.53;;;4.50;;
21843;SDS011;11084;52.482;9.108;2022-12-20T10:37:35;9.13;;;4.13;;
21843;SDS011;11084;52.482;9.108;2022-12-20T10:40:04;7.80;;;4.30;;
21843;SDS011;11084;52.482;9.108;2022-12-20T10:42:38;9.00;;;4.40;;
21843;SDS011;11084;52.482;9.108;2022-12-20T10:47:43;7.67;;;4.03;;
21843;SDS011;11084;52.482;9.108;2022-12-20T10:52:44;7.20;;;3.70;;
21843;SDS011;11084;52.482;9.108;2022-12-20T10:58:29;7.70;;;3.90;;
21843;SDS011;11084;52.482;9.108;2022-12-20T11:01:19;4.37;;;3.00;;
21843;SDS011;11084;52.482;9.108;2022-12-20T11:04:00;7.00;;;3.93;;
21843;SDS011;11084;52.482;9.108;2022-12-20T11:06:41;5.60;;;3.13;;
21843;SDS011;11084;52.482;9.108;2022-12-20T11:09:16;6.77;;;3.80;;
21843;SDS011;11084;52.482;9.108;2022-12-20T11:11:58;9.73;;;3.53;;
21843;SDS011;11084;52.482;9.108;2022-12-20T11:14:33;6.20;;;3.80;;
21843;SDS011;11084;52.482;9.108;2022-12-20T11:17:14;5.50;;;3.23;;
21843;SDS011;11084;52.482;9.108;2022-12-20T11:20:10;8.03;;;3.80;;
21843;SDS011;11084;52.482;9.108;2022-12-20T11:23:38;7.90;;;3.90;;
21843;SDS011;11084;52.482;9.108;2022-12-20T11:29:18;7.47;;;4.03;;
21843;SDS011;11084;52.482;9.108;2022-12-20T11:38:10;9.90;;;3.80;;
21843;SDS011;11084;52.482;9.108;2022-12-20T11:40:41;6.93;;;3.67;;
21843;SDS011;11084;52.482;9.108;2022-12-20T11:49:14;7.00;;;3.60;;
21843;SDS011;11084;52.482;9.108;2022-12-20T11:55:14;11.80;;;4.30;;
21843;SDS011;11084;52.482;9.108;2022-12-20T12:01:02;11.43;;;4.70;;
21843;SDS011;11084;52.482;9.108;2022-12-20T12:03:34;8.20;;;4.67;;
21843;SDS011;11084;52.482;9.108;2022-12-20T12:06:34;7.27;;;3.60;;
21843;SDS011;11084;52.482;9.108;2022-12-20T12:09:35;7.33;;;3.60;;
21843;SDS011;11084;52.482;9.108;2022-12-20T12:15:04;6.73;;;3.77;;
21843;SDS011;11084;52.482;9.108;2022-12-20T12:17:58;7.50;;;3.53;;
21843;SDS011;11084;52.482;9.108;2022-12-20T12:24:11;5.93;;;3.50;;
21843;SDS011;11084;52.482;9.108;2022-12-20T12:26:54;6.33;;;3.87;;
21843;SDS011;11084;52.482;9.108;2022-12-20T12:29:24;6.10;;;3.63;;
21843;SDS011;11084;52.482;9.108;2022-12-20T12:44:25;7.97;;;3.77;;
21843;SDS011;11084;52.482;9.108;2022-12-20T12:50:26;12.20;;;4.03;;
21843;SDS011;11084;52.482;9.108;2022-12-20T12:52:58;8.37;;;4.00;;
21843;SDS011;11084;52.482;9.108;2022-12-20T12:55:45;11.33;;;4.13;;
21843;SDS011;11084;52.482;9.108;2022-12-20T13:00:55;6.37;;;3.43;;
21843;SDS011;11084;52.482;9.108;2022-12-20T13:03:37;11.23;;;3.90;;
21843;SDS011;11084;52.482;9.108;2022-12-20T13:11:52;8.20;;;4.20;;
21843;SDS011;11084;52.482;9.108;2022-12-20T13:20:22;7.57;;;3.83;;
21843;SDS011;11084;52.482;9.108;2022-12-20T13:25:34;4.93;;;3.73;;
21843;SDS011;11084;52.482;9.108;2022-12-20T13:33:43;5.37;;;3.30;;
21843;SDS011;11084;52.482;9.108;2022-12-20T13:39:40;9.43;;;3.50;;
21843;SDS011;11084;52.482;9.108;2022-12-20T13:41:46;11.07;;;4.37;;
21843;SDS011;11084;52.482;9.108;2022-12-20T13:47:14;9.77;;;3.87;;
21843;SDS011;11084;52.482;9.108;2022-12-20T13:50:11;5.67;;;3.50;;
21843;SDS011;11084;52.482;9.108;2022-12-20T13:52:52;5.47;;;3.37;;
21843;SDS011;11084;52.482;9.108;2022-12-20T13:55:43;7.60;;;3.73;;
21843;SDS011;11084;52.482;9.108;2022-12-20T13:58:11;6.83;;;3.67;;
21843;SDS011;11084;52.482;9.108;2022-12-20T14:01:03;7.93;;;3.83;;
21843;SDS011;11084;52.482;9.108;2022-12-20T14:03:37;6.70;;;3.83;;
21843;SDS011;11084;52.482;9.108;2022-12-20T14:06:10;6.17;;;3.43;;
21843;SDS011;11084;52.482;9.108;2022-12-20T14:08:44;6.90;;;3.57;;
21843;SDS011;11084;52.482;9.108;2022-12-20T14:11:18;6.47;;;3.30;;
21843;SDS011;11084;52.482;9.108;2022-12-20T14:16:30;6.80;;;3.10;;
21843;SDS011;11084;52.482;9.108;2022-12-20T14:19:01;7.17;;;3.20;;
21843;SDS011;11084;52.482;9.108;2022-12-20T14:21:35;13.10;;;3.80;;
21843;SDS011;11084;52.482;9.108;2022-12-20T14:24:08;6.20;;;3.17;;
21843;SDS011;11084;52.482;9.108;2022-12-20T14:26:46;5.37;;;3.07;;
21843;SDS011;11084;52.482;9.108;2022-12-20T14:29:23;10.97;;;3.33;;
21843;SDS011;11084;52.482;9.108;2022-12-20T14:31:54;7.07;;;2.93;;
21843;SDS011;11084;52.482;9.108;2022-12-20T14:34:29;8.73;;;3.27;;
21843;SDS011;11084;52.482;9.108;2022-12-20T14:39:57;4.93;;;3.10;;
21843;SDS011;11084;52.482;9.108;2022-12-20T14:42:42;8.57;;;3.00;;
21843;SDS011;11084;52.482;9.108;2022-12-20T14:47:49;5.40;;;3.40;;
21843;SDS011;11084;52.482;9.108;2022-12-20T14:50:40;6.23;;;3.30;;
21843;SDS011;11084;52.482;9.108;2022-12-20T14:53:19;5.17;;;3.10;;
21843;SDS011;11084;52.482;9.108;2022-12-20T14:55:54;4.83;;;3.33;;
21843;SDS011;11084;52.482;9.108;2022-12-20T14:58:25;6.03;;;3.60;;
21843;SDS011;11084;52.482;9.108;2022-12-20T15:03:28;7.27;;;3.77;;
21843;SDS011;11084;52.482;9.108;2022-12-20T15:05:55;5.97;;;3.77;;
21843;SDS011;11084;52.482;9.108;2022-12-20T15:11:00;6.50;;;3.57;;
21843;SDS011;11084;52.482;9.108;2022-12-20T15:16:19;8.90;;;4.03;;
21843;SDS011;11084;52.482;9.108;2022-12-20T15:18:49;8.93;;;3.43;;
21843;SDS011;11084;52.482;9.108;2022-12-20T15:21:26;6.23;;;3.50;;
21843;SDS011;11084;52.482;9.108;2022-12-20T15:23:56;8.20;;;3.97;;
21843;SDS011;11084;52.482;9.108;2022-12-20T15:26:27;8.43;;;4.10;;
21843;SDS011;11084;52.482;9.108;2022-12-20T15:28:55;6.67;;;3.70;;
21843;SDS011;11084;52.482;9.108;2022-12-20T15:31:22;5.23;;;3.17;;
21843;SDS011;11084;52.482;9.108;2022-12-20T15:33:49;9.07;;;3.80;;
21843;SDS011;11084;52.482;9.108;2022-12-20T15:36:22;11.20;;;3.83;;
21843;SDS011;11084;52.482;9.108;2022-12-20T15:38:51;5.60;;;3.60;;
21843;SDS011;11084;52.482;9.108;2022-12-20T15:43:54;7.40;;;3.97;;
21843;SDS011;11084;52.482;9.108;2022-12-20T15:46:24;7.00;;;3.40;;
21843;SDS011;11084;52.482;9.108;2022-12-20T15:48:51;7.87;;;3.97;;
21843;SDS011;11084;52.482;9.108;2022-12-20T15:56:57;7.00;;;4.30;;
21843;SDS011;11084;52.482;9.108;2022-12-20T15:59:31;6.03;;;3.73;;
21843;SDS011;11084;52.482;9.108;2022-12-20T16:01:58;8.33;;;4.10;;
21843;SDS011;11084;52.482;9.108;2022-12-20T16:04:29;9.60;;;4.33;;
21843;SDS011;11084;52.482;9.108;2022-12-20T16:06:55;10.20;;;4.30;;
21843;SDS011;11084;52.482;9.108;2022-12-20T16:09:21;5.00;;;3.17;;
21843;SDS011;11084;52.482;9.108;2022-12-20T16:11:51;7.07;;;3.80;;
21843;SDS011;11084;52.482;9.108;2022-12-20T16:14:18;13.03;;;3.97;;
21843;SDS011;11084;52.482;9.108;2022-12-20T16:16:45;8.20;;;3.97;;
21843;SDS011;11084;52.482;9.108;2022-12-20T16:19:14;10.23;;;4.00;;
21843;SDS011;11084;52.482;9.108;2022-12-20T16:21:45;7.03;;;3.97;;
21843;SDS011;11084;52.482;9.108;2022-12-20T16:24:17;6.87;;;3.37;;
21843;SDS011;11084;52.482;9.108;2022-12-20T16:26:45;8.17;;;3.53;;
21843;SDS011;11084;52.482;9.108;2022-12-20T16:29:13;6.83;;;3.47;;
21843;SDS011;11084;52.482;9.108;2022-12-20T16:31:40;8.13;;;3.87;;
21843;SDS011;11084;52.482;9.108;2022-12-20T16:34:16;9.43;;;3.13;;
21843;SDS011;11084;52.482;9.108;2022-12-20T16:36:45;5.67;;;3.60;;
21843;SDS011;11084;52.482;9.108;2022-12-20T16:39:11;7.53;;;3.13;;
21843;SDS011;11084;52.482;9.108;2022-12-20T16:41:41;6.03;;;3.20;;
21843;SDS011;11084;52.482;9.108;2022-12-20T16:44:13;5.03;;;3.00;;
21843;SDS011;11084;52.482;9.108;2022-12-20T16:46:40;8.73;;;3.17;;
21843;SDS011;11084;52.482;9.108;2022-12-20T16:49:07;4.17;;;2.80;;
21843;SDS011;11084;52.482;9.108;2022-12-20T16:51:39;6.17;;;3.10;;
21843;SDS011;11084;52.482;9.108;2022-12-20T16:54:13;4.63;;;3.07;;
21843;SDS011;11084;52.482;9.108;2022-12-20T16:56:45;4.07;;;2.70;;
21843;SDS011;11084;52.482;9.108;2022-12-20T16:59:12;6.03;;;3.30;;
21843;SDS011;11084;52.482;9.108;2022-12-20T17:01:39;4.97;;;2.87;;
21843;SDS011;11084;52.482;9.108;2022-12-20T17:04:09;4.87;;;3.00;;
21843;SDS011;11084;52.482;9.108;2022-12-20T17:06:41;5.07;;;2.70;;
21843;SDS011;11084;52.482;9.108;2022-12-20T17:09:08;4.30;;;2.60;;
21843;SDS011;11084;52.482;9.108;2022-12-20T17:11:34;5.57;;;2.93;;
21843;SDS011;11084;52.482;9.108;2022-12-20T17:14:01;7.67;;;2.53;;
21843;SDS011;11084;52.482;9.108;2022-12-20T17:16:28;11.93;;;2.30;;
21843;SDS011;11084;52.482;9.108;2022-12-20T17:18:55;4.20;;;3.40;;
21843;SDS011;11084;52.482;9.108;2022-12-20T17:23:55;8.33;;;2.63;;
21843;SDS011;11084;52.482;9.108;2022-12-20T17:26:25;4.57;;;2.73;;
21843;SDS011;11084;52.482;9.108;2022-12-20T17:28:54;6.73;;;2.50;;
21843;SDS011;11084;52.482;9.108;2022-12-20T17:33:55;3.67;;;2.63;;
21843;SDS011;11084;52.482;9.108;2022-12-20T17:36:24;9.40;;;3.40;;
21843;SDS011;11084;52.482;9.108;2022-12-20T17:39:20;6.87;;;2.80;;
21843;SDS011;11084;52.482;9.108;2022-12-20T17:41:54;3.63;;;2.87;;
21843;SDS011;11084;52.482;9.108;2022-12-20T17:44:22;4.63;;;2.30;;
21843;SDS011;11084;52.482;9.108;2022-12-20T17:46:51;6.70;;;3.13;;